createdAt,value
2023-12-04T00:01:46.590Z,101375.03
2023-12-04T00:04:14.076Z,101374.22
2023-12-04T00:06:42.661Z,101369.16
2023-12-04T00:09:09.192Z,101365.81
2023-12-04T00:11:35.634Z,101359.97
2023-12-04T00:14:02.142Z,101361.63
2023-12-04T00:16:28.651Z,101364.16
2023-12-04T00:18:55.260Z,101355.75
2023-12-04T00:21:21.898Z,101349.88
2023-12-04T00:23:48.403Z,101350.69
2023-12-04T00:26:15.595Z,101347.34
2023-12-04T00:28:42.140Z,101347.34
2023-12-04T00:31:09.858Z,101347.34
2023-12-04T00:33:36.438Z,101343.94
2023-12-04T00:36:03.230Z,101343.13
2023-12-04T00:38:29.731Z,101333.00
2023-12-04T00:40:56.669Z,101328.78
2023-12-04T00:43:23.139Z,101326.28
2023-12-04T00:45:49.671Z,101327.97
2023-12-04T00:48:16.227Z,101325.47
2023-12-04T00:50:42.684Z,101324.63
2023-12-04T00:53:09.165Z,101321.25
2023-12-04T00:55:35.644Z,101316.22
2023-12-04T00:58:02.998Z,101322.97
2023-12-04T01:00:29.715Z,101320.44
2023-12-04T01:02:56.495Z,101314.56
2023-12-04T01:05:23.058Z,101315.34
2023-12-04T01:07:49.656Z,101310.28
2023-12-04T01:10:16.086Z,101315.38
2023-12-04T01:12:42.554Z,101311.13
2023-12-04T01:15:10.317Z,101317.88
2023-12-04T01:17:36.974Z,101312.00
2023-12-04T01:20:03.659Z,101309.47
2023-12-04T01:22:30.113Z,101302.72
2023-12-04T01:24:57.044Z,101297.69
2023-12-04T01:27:23.489Z,101296.84
2023-12-04T01:29:49.913Z,101280.81
2023-12-04T01:32:16.522Z,101288.41
2023-12-04T01:34:42.942Z,101290.94
2023-12-04T01:37:09.964Z,101276.63
2023-12-04T01:39:36.416Z,101289.25
2023-12-04T01:42:03.656Z,101283.31
2023-12-04T01:44:30.190Z,101271.53
2023-12-04T01:46:57.169Z,101269.84
2023-12-04T01:49:25.373Z,101274.88
2023-12-04T01:51:52.428Z,101271.47
2023-12-04T01:54:19.198Z,101270.63
2023-12-04T01:56:46.072Z,101268.94
2023-12-04T01:59:13.000Z,101261.34
2023-12-04T02:01:41.301Z,101256.28
2023-12-04T02:04:08.294Z,101257.13
2023-12-04T02:06:35.983Z,101252.09
2023-12-04T02:09:03.074Z,101251.25
2023-12-04T02:11:29.775Z,101246.19
2023-12-04T02:13:56.778Z,101240.28
2023-12-04T02:16:26.844Z,101241.13
2023-12-04T02:21:28.986Z,101234.44
2023-12-04T02:23:55.458Z,101230.19
2023-12-04T02:26:31.966Z,101240.28
2023-12-04T02:29:02.070Z,101232.75
2023-12-04T02:31:30.865Z,101234.44
2023-12-04T02:34:00.548Z,101228.56
2023-12-04T02:36:28.592Z,101223.53
2023-12-04T02:38:56.086Z,101220.16
2023-12-04T02:41:22.651Z,101209.22
2023-12-04T02:43:49.044Z,101205.00
2023-12-04T02:46:15.565Z,101198.28
2023-12-04T02:48:42.074Z,101195.78
2023-12-04T02:51:08.607Z,101185.66
2023-12-04T02:53:35.052Z,101187.31
2023-12-04T02:56:01.523Z,101183.13
2023-12-04T02:58:27.950Z,101183.13
2023-12-04T03:00:54.426Z,101176.34
2023-12-04T03:03:21.008Z,101167.09
2023-12-04T03:05:47.442Z,101169.59
2023-12-04T03:08:13.842Z,101167.06
2023-12-04T03:10:40.258Z,101170.47
2023-12-04T03:13:06.662Z,101158.66
2023-12-04T03:15:33.161Z,101159.50
2023-12-04T03:18:02.896Z,101154.44
2023-12-04T03:20:29.989Z,101162.88
2023-12-04T03:22:56.969Z,101151.91
2023-12-04T03:25:23.366Z,101154.44
2023-12-04T03:27:49.811Z,101142.63
2023-12-04T03:30:16.464Z,101136.75
2023-12-04T03:32:43.133Z,101140.16
2023-12-04T03:35:09.530Z,101133.41
2023-12-04T03:37:37.702Z,101128.34
2023-12-04T03:40:04.672Z,101128.31
2023-12-04T03:42:31.174Z,101119.88
2023-12-04T03:44:57.719Z,101121.56
2023-12-04T03:47:24.790Z,101119.03
2023-12-04T03:49:51.396Z,101111.44
2023-12-04T03:52:17.895Z,101114.84
2023-12-04T03:54:45.146Z,101107.25
2023-12-04T03:57:12.789Z,101097.97
2023-12-04T03:59:39.275Z,101095.44
2023-12-04T04:02:05.678Z,101087.00
2023-12-04T04:04:32.291Z,101092.84
2023-12-04T04:06:58.820Z,101090.38
2023-12-04T04:09:25.296Z,101095.38
2023-12-04T04:11:51.710Z,101086.13
2023-12-04T04:14:18.232Z,101085.28
2023-12-04T04:16:44.651Z,101085.28
2023-12-04T04:19:12.839Z,101080.22
2023-12-04T04:21:41.904Z,101077.69
2023-12-04T04:24:08.493Z,101077.69
2023-12-04T04:26:34.919Z,101065.91
2023-12-04T04:29:01.706Z,101073.47
2023-12-04T04:31:28.193Z,101063.38
2023-12-04T04:33:54.666Z,101052.44
2023-12-04T04:36:21.180Z,101054.13
2023-12-04T04:38:47.707Z,101055.00
2023-12-04T04:41:17.230Z,101054.16
2023-12-04T04:43:43.848Z,101056.69
2023-12-04T04:46:10.447Z,101055.00
2023-12-04T04:48:37.102Z,101049.97
2023-12-04T04:51:03.968Z,101049.97
2023-12-04T04:53:30.537Z,101054.19
2023-12-04T04:55:56.981Z,101050.00
2023-12-04T04:58:23.340Z,101044.94
2023-12-04T05:00:49.746Z,101046.63
2023-12-04T05:03:16.509Z,101046.59
2023-12-04T05:05:43.151Z,101047.44
2023-12-04T05:08:09.692Z,101041.53
2023-12-04T05:10:36.145Z,101036.47
2023-12-04T05:13:02.745Z,101040.72
2023-12-04T05:15:29.326Z,101036.50
2023-12-04T05:17:55.806Z,101030.59
2023-12-04T05:20:22.271Z,101028.09
2023-12-04T05:22:50.466Z,101027.25
2023-12-04T05:25:16.948Z,101022.19
2023-12-04T05:27:43.385Z,101025.53
2023-12-04T05:30:10.166Z,101018.78
2023-12-04T05:32:36.844Z,101015.44
2023-12-04T05:35:03.931Z,101014.59
2023-12-04T05:37:30.496Z,101015.44
2023-12-04T05:39:57.135Z,101011.22
2023-12-04T05:42:23.585Z,100995.22
2023-12-04T05:44:50.062Z,100996.94
2023-12-04T05:47:16.498Z,100988.53
2023-12-04T05:49:43.241Z,100983.47
2023-12-04T05:52:09.727Z,100986.84
2023-12-04T05:54:36.194Z,100985.16
2023-12-04T05:57:02.710Z,100975.88
2023-12-04T05:59:29.158Z,100986.84
2023-12-04T06:01:55.652Z,100986.84
2023-12-04T06:04:22.101Z,100985.16
2023-12-04T06:06:48.504Z,100986.84
2023-12-04T06:09:17.226Z,100973.34
2023-12-04T06:11:46.095Z,100975.88
2023-12-04T06:14:14.242Z,100965.78
2023-12-04T06:16:40.684Z,100970.03
2023-12-04T06:19:07.168Z,100969.19
2023-12-04T06:21:34.010Z,100974.25
2023-12-04T06:24:00.908Z,100980.94
2023-12-04T06:26:27.606Z,100983.50
2023-12-04T06:28:54.345Z,100980.97
2023-12-04T06:31:21.138Z,100970.03
2023-12-04T06:33:47.918Z,100960.81
2023-12-04T06:36:15.986Z,100959.94
2023-12-04T06:38:42.971Z,100945.66
2023-12-04T06:41:10.107Z,100951.53
2023-12-04T06:43:36.905Z,100944.78
2023-12-04T06:46:03.980Z,100941.44
2023-12-04T06:48:30.854Z,100942.28
2023-12-04T06:50:57.580Z,100935.56
2023-12-04T06:53:24.007Z,100931.34
2023-12-04T06:55:50.397Z,100920.41
2023-12-04T06:58:16.863Z,100919.56
2023-12-04T07:00:43.369Z,100924.59
2023-12-04T07:03:09.816Z,100918.72
2023-12-04T07:05:36.426Z,100923.78
2023-12-04T07:08:03.973Z,100917.88
2023-12-04T07:10:32.438Z,100922.91
2023-12-04T07:13:00.464Z,100915.34
2023-12-04T07:15:26.944Z,100910.31
2023-12-04T07:17:54.749Z,100901.03
2023-12-04T07:20:24.919Z,100906.09
2023-12-04T07:22:51.352Z,100897.69
2023-12-04T07:25:17.819Z,100892.63
2023-12-04T07:27:44.300Z,100887.59
2023-12-04T07:30:12.049Z,100892.66
2023-12-04T07:32:38.738Z,100890.16
2023-12-04T07:35:06.083Z,100890.97
2023-12-04T07:37:33.140Z,100895.19
2023-12-04T07:39:59.672Z,100890.16
2023-12-04T07:42:26.195Z,100897.72
2023-12-04T07:44:52.686Z,100891.84
2023-12-04T07:47:19.118Z,100897.75
2023-12-04T07:49:46.245Z,100889.31
2023-12-04T07:52:12.908Z,100883.41
2023-12-04T07:54:39.962Z,100886.81
2023-12-04T07:57:06.450Z,100879.25
2023-12-04T07:59:32.977Z,100884.31
2023-12-04T08:01:59.838Z,100879.25
2023-12-04T08:04:26.450Z,100880.97
2023-12-04T08:06:52.880Z,100884.31
2023-12-04T08:09:19.343Z,100882.63
2023-12-04T08:11:46.477Z,100883.50
2023-12-04T08:14:13.134Z,100886.03
2023-12-04T08:16:39.593Z,100886.03
2023-12-04T08:19:06.271Z,100890.25
2023-12-04T08:21:33.257Z,100893.66
2023-12-04T08:23:59.825Z,100890.28
2023-12-04T08:26:26.748Z,100887.75
2023-12-04T08:28:53.650Z,100893.66
2023-12-04T08:31:20.255Z,100885.25
2023-12-04T08:33:47.178Z,100880.22
2023-12-04T08:36:13.774Z,100881.88
2023-12-04T08:38:40.371Z,100878.53
2023-12-04T08:41:07.207Z,100874.34
2023-12-04T08:43:33.841Z,100870.97
2023-12-04T08:46:01.884Z,100868.44
2023-12-04T08:48:28.541Z,100862.56
2023-12-04T08:50:55.501Z,100852.47
2023-12-04T08:53:22.052Z,100856.72
2023-12-04T08:55:48.699Z,100851.66
2023-12-04T08:58:15.333Z,100855.06
2023-12-04T09:00:44.440Z,100855.09
2023-12-04T09:03:18.074Z,100848.34
2023-12-04T09:05:51.628Z,100844.97
2023-12-04T09:08:31.547Z,100844.16
2023-12-04T09:11:18.195Z,100843.31
2023-12-04T09:13:49.547Z,100840.81
2023-12-04T09:16:16.322Z,100830.72
2023-12-04T09:18:43.005Z,100834.91
2023-12-04T09:21:09.781Z,100835.78
2023-12-04T09:23:36.818Z,100834.09
2023-12-04T09:26:03.729Z,100835.81
2023-12-04T09:28:30.377Z,100818.97
2023-12-04T09:30:57.673Z,100829.94
2023-12-04T09:33:24.234Z,100824.88
2023-12-04T09:35:50.707Z,100835.00
2023-12-04T09:38:17.715Z,100830.81
2023-12-04T09:40:44.348Z,100829.94
2023-12-04T09:43:11.780Z,100828.28
2023-12-04T09:45:39.740Z,100828.28
2023-12-04T09:48:07.310Z,100830.81
2023-12-04T09:50:34.241Z,100831.66
2023-12-04T09:53:02.579Z,100824.06
2023-12-04T09:55:29.055Z,100816.47
2023-12-04T09:57:57.851Z,100820.69
2023-12-04T10:00:25.482Z,100814.81
2023-12-04T10:02:53.325Z,100815.66
2023-12-04T10:05:19.991Z,100813.97
2023-12-04T10:07:46.379Z,100808.91
2023-12-04T10:10:12.851Z,100798.81
2023-12-04T10:12:39.544Z,100803.88
2023-12-04T10:15:06.404Z,100793.75
2023-12-04T10:17:39.937Z,100786.13
2023-12-04T10:20:18.450Z,100782.78
2023-12-04T10:23:03.388Z,100777.72
2023-12-04T10:25:31.605Z,100779.41
2023-12-04T10:28:17.322Z,100776.03
2023-12-04T10:30:44.355Z,100770.13
2023-12-04T10:33:11.440Z,100770.97
2023-12-04T10:35:38.222Z,100761.69
2023-12-04T10:38:06.435Z,100754.91
2023-12-04T10:40:34.996Z,100761.69
2023-12-04T10:43:22.541Z,100749.84
2023-12-04T10:45:50.704Z,100740.56
2023-12-04T10:48:20.089Z,100743.09
2023-12-04T10:50:49.458Z,100743.94
2023-12-04T10:53:17.661Z,100742.22
2023-12-04T10:55:45.708Z,100733.81
2023-12-04T10:58:18.157Z,100731.25
2023-12-04T11:00:49.709Z,100732.97
2023-12-04T11:03:38.566Z,100729.59
2023-12-04T11:06:08.872Z,100716.91
2023-12-04T11:08:37.346Z,100717.75
2023-12-04T11:11:08.544Z,100711.84
2023-12-04T11:13:44.842Z,100698.31
2023-12-04T11:16:28.641Z,100687.34
2023-12-04T11:19:02.926Z,100690.72
2023-12-04T11:21:33.222Z,100681.41
2023-12-04T11:24:00.405Z,100686.47
2023-12-04T11:26:27.591Z,100679.72
2023-12-04T11:28:54.974Z,100673.81
2023-12-04T11:31:21.881Z,100675.50
2023-12-04T11:33:48.378Z,100671.28
2023-12-04T11:36:16.746Z,100656.06
2023-12-04T11:38:48.362Z,100661.97
2023-12-04T11:41:26.052Z,100657.78
2023-12-04T11:43:56.879Z,100659.44
2023-12-04T11:46:26.432Z,100657.75
2023-12-04T11:49:15.900Z,100656.06
2023-12-04T11:51:48.366Z,100656.91
2023-12-04T11:54:16.239Z,100651.00
2023-12-04T11:57:01.170Z,100648.47
2023-12-04T11:59:28.162Z,100645.13
2023-12-04T12:01:57.378Z,100645.13
2023-12-04T12:04:24.479Z,100640.03
2023-12-04T12:06:51.759Z,100638.38
2023-12-04T12:09:20.190Z,100638.38
2023-12-04T12:11:46.739Z,100634.13
2023-12-04T12:14:14.213Z,100634.97
2023-12-04T12:16:41.020Z,100623.97
2023-12-04T12:19:07.546Z,100625.66
2023-12-04T12:21:34.183Z,100617.22
2023-12-04T12:26:48.495Z,100611.25
2023-12-04T12:29:15.026Z,100607.84
2023-12-04T12:31:41.444Z,100614.59
2023-12-04T12:34:08.077Z,100605.31
2023-12-04T12:36:34.833Z,100622.19
2023-12-04T12:39:04.799Z,100602.78
2023-12-04T12:41:32.208Z,100595.19
2023-12-04T12:43:58.719Z,100594.31
2023-12-04T12:46:25.115Z,100587.59
2023-12-04T12:48:52.628Z,100586.72
2023-12-04T12:51:19.732Z,100580.78
2023-12-04T12:53:50.973Z,100568.09
2023-12-04T12:56:19.131Z,100571.50
2023-12-04T12:58:45.735Z,100559.66
2023-12-04T13:01:13.393Z,100551.22
2023-12-04T13:03:40.228Z,100554.59
2023-12-04T13:06:07.173Z,100548.69
2023-12-04T13:08:33.701Z,100547.81
2023-12-04T13:11:00.701Z,100543.63
2023-12-04T13:13:28.172Z,100540.22
2023-12-04T13:15:55.508Z,100535.16
2023-12-04T13:18:22.036Z,100534.34
2023-12-04T13:20:48.536Z,100529.28
2023-12-04T13:23:15.081Z,100530.13
2023-12-04T13:25:41.660Z,100522.53
2023-12-04T13:28:09.670Z,100513.25
2023-12-04T13:30:39.843Z,100517.50
2023-12-04T13:33:06.750Z,100503.16
2023-12-04T13:35:33.923Z,100501.47
2023-12-04T13:38:00.734Z,100499.81
2023-12-04T13:40:29.494Z,100498.13
2023-12-04T13:43:14.696Z,100494.72
2023-12-04T13:45:41.175Z,100492.19
2023-12-04T13:48:07.746Z,100493.06
2023-12-04T13:50:34.429Z,100483.75
2023-12-04T13:53:01.819Z,100478.69
2023-12-04T13:55:46.786Z,100495.59
2023-12-04T13:58:33.262Z,100484.63
2023-12-04T14:01:01.609Z,100480.44
2023-12-04T14:03:30.038Z,100482.97
2023-12-04T14:05:57.025Z,100477.88
2023-12-04T14:08:23.849Z,100474.53
2023-12-04T14:10:50.694Z,100475.38
2023-12-04T14:13:17.967Z,100463.53
2023-12-04T14:15:44.666Z,100460.16
2023-12-04T14:18:11.713Z,100449.19
2023-12-04T14:20:38.371Z,100451.72
2023-12-04T14:23:06.063Z,100439.88
2023-12-04T14:25:32.507Z,100441.59
2023-12-04T14:27:58.941Z,100433.16
2023-12-04T14:30:28.511Z,100430.63
2023-12-04T14:32:56.078Z,100426.41
2023-12-04T14:35:22.598Z,100428.09
2023-12-04T14:37:49.044Z,100430.63
2023-12-04T14:40:16.598Z,100425.56
2023-12-04T14:42:44.741Z,100423.03
2023-12-04T14:45:11.165Z,100417.97
2023-12-04T14:47:38.010Z,100423.03
2023-12-04T14:50:05.487Z,100417.09
2023-12-04T14:52:35.036Z,100411.22
2023-12-04T14:58:15.405Z,100417.13
2023-12-04T15:01:20.184Z,100417.13
2023-12-04T15:04:05.349Z,100408.69
2023-12-04T15:06:42.235Z,100407.00
2023-12-04T15:09:17.510Z,100403.66
2023-12-04T15:12:19.366Z,100401.97
2023-12-04T15:14:45.815Z,100406.22
2023-12-04T15:17:33.547Z,100403.69
2023-12-04T15:20:00.042Z,100402.84
2023-12-04T15:22:26.488Z,100400.31
2023-12-04T15:24:52.930Z,100395.25
2023-12-04T15:27:19.359Z,100388.50
2023-12-04T15:29:46.291Z,100391.03
2023-12-04T15:32:12.725Z,100390.16
2023-12-04T15:34:39.150Z,100390.19
2023-12-04T15:37:05.532Z,100385.13
2023-12-04T15:39:32.746Z,100379.22
2023-12-04T15:41:59.234Z,100376.72
2023-12-04T15:44:26.483Z,100378.38
2023-12-04T15:46:52.962Z,100379.25
2023-12-04T15:49:19.841Z,100373.34
2023-12-04T15:51:46.431Z,100369.16
2023-12-04T15:54:12.948Z,100377.59
2023-12-04T15:56:39.378Z,100375.06
2023-12-04T15:59:05.860Z,100371.72
2023-12-04T16:01:32.318Z,100371.72
2023-12-04T16:03:59.019Z,100360.75
2023-12-04T16:06:25.930Z,100357.41
2023-12-04T16:08:52.461Z,100351.50
2023-12-04T16:11:19.317Z,100349.81
2023-12-04T16:13:45.747Z,100343.06
2023-12-04T16:16:12.312Z,100347.28
2023-12-04T16:18:39.773Z,100338.88
2023-12-04T16:21:06.492Z,100344.78
2023-12-04T16:23:32.922Z,100341.44
2023-12-04T16:25:59.784Z,100340.59
2023-12-04T16:28:26.887Z,100336.38
2023-12-04T16:30:56.876Z,100334.69
2023-12-04T16:33:23.423Z,100336.41
2023-12-04T16:35:49.980Z,100338.94
2023-12-04T16:38:16.393Z,100349.06
2023-12-04T16:40:42.803Z,100338.97
2023-12-04T16:43:09.213Z,100330.53
2023-12-04T16:45:35.806Z,100333.06
2023-12-04T16:48:02.614Z,100329.72
2023-12-04T16:50:30.309Z,100323.84
2023-12-04T16:52:56.823Z,100328.06
2023-12-04T16:55:23.297Z,100321.31
2023-12-04T16:57:49.784Z,100321.31
2023-12-04T17:00:16.608Z,100320.50
2023-12-04T17:02:43.308Z,100317.09
2023-12-04T17:05:10.112Z,100315.44
2023-12-04T17:07:36.655Z,100313.72
2023-12-04T17:10:03.308Z,100313.72
2023-12-04T17:12:32.417Z,100318.78
2023-12-04T17:14:59.137Z,100319.59
2023-12-04T17:17:25.649Z,100303.59
2023-12-04T17:19:52.232Z,100317.94
2023-12-04T17:22:18.714Z,100311.16
2023-12-04T17:24:45.540Z,100307.78
2023-12-04T17:27:12.083Z,100307.78
2023-12-04T17:29:38.667Z,100302.75
2023-12-04T17:32:05.444Z,100301.03
2023-12-04T17:34:32.452Z,100295.16
2023-12-04T17:36:59.015Z,100285.03
2023-12-04T17:39:25.579Z,100291.75
2023-12-04T17:41:52.035Z,100295.97
2023-12-04T17:44:18.530Z,100289.25
2023-12-04T17:46:45.091Z,100286.72
2023-12-04T17:49:14.848Z,100290.09
2023-12-04T17:51:41.616Z,100283.31
2023-12-04T17:54:08.269Z,100278.28
2023-12-04T17:56:35.524Z,100274.03
2023-12-04T17:59:03.732Z,100270.69
2023-12-04T18:01:30.437Z,100275.75
2023-12-04T18:03:57.358Z,100269.00
2023-12-04T18:06:32.899Z,100282.50
2023-12-04T18:08:59.456Z,100282.50
2023-12-04T18:11:26.114Z,100273.22
2023-12-04T18:13:53.765Z,100281.66
2023-12-04T18:16:21.758Z,100277.47
2023-12-04T18:18:49.417Z,100268.19
2023-12-04T18:21:17.174Z,100261.44
2023-12-04T18:23:43.639Z,100257.25
2023-12-04T18:26:10.777Z,100253.84
2023-12-04T18:28:37.986Z,100253.84
2023-12-04T18:31:05.333Z,100248.78
2023-12-04T18:33:36.506Z,100250.50
2023-12-04T18:36:06.550Z,100248.81
2023-12-04T18:38:40.160Z,100247.13
2023-12-04T18:41:07.053Z,100244.59
2023-12-04T18:43:34.744Z,100245.47
2023-12-04T18:46:01.660Z,100248.00
2023-12-04T18:48:32.847Z,100248.00
2023-12-04T18:50:59.812Z,100249.66
2023-12-04T18:53:26.446Z,100252.19
2023-12-04T18:55:52.867Z,100251.34
2023-12-04T18:58:19.322Z,100248.00
2023-12-04T19:00:45.838Z,100243.78
2023-12-04T19:03:12.388Z,100237.00
2023-12-04T19:05:39.153Z,100236.16
2023-12-04T19:08:06.705Z,100234.47
2023-12-04T19:10:33.164Z,100231.94
2023-12-04T19:12:59.854Z,100229.41
2023-12-04T19:15:27.424Z,100231.94
2023-12-04T19:17:54.096Z,100230.25
2023-12-04T19:20:20.691Z,100225.22
2023-12-04T19:22:47.142Z,100214.22
2023-12-04T19:25:14.696Z,100220.13
2023-12-04T19:27:41.464Z,100215.09
2023-12-04T19:30:08.823Z,100211.69
2023-12-04T19:32:35.804Z,100209.16
2023-12-04T19:35:02.639Z,100199.91
2023-12-04T19:37:29.555Z,100202.44
2023-12-04T19:39:55.973Z,100194.00
2023-12-04T19:42:27.061Z,100197.41
2023-12-04T19:44:55.131Z,100199.94
2023-12-04T19:47:22.246Z,100203.28
2023-12-04T19:49:48.871Z,100200.75
2023-12-04T19:52:15.373Z,100197.38
2023-12-04T19:54:43.180Z,100203.28
2023-12-04T19:57:09.852Z,100199.06
2023-12-04T19:59:36.919Z,100197.38
2023-12-04T20:02:03.717Z,100192.31
2023-12-04T20:04:30.518Z,100192.31
2023-12-04T20:06:57.024Z,100189.75
2023-12-04T20:09:23.701Z,100181.34
2023-12-04T20:11:50.213Z,100187.22
2023-12-04T20:14:16.963Z,100186.41
2023-12-04T20:16:49.702Z,100180.47
2023-12-04T20:19:16.302Z,100171.19
2023-12-04T20:21:43.554Z,100172.84
2023-12-04T20:24:10.188Z,100158.53
2023-12-04T20:26:36.716Z,100161.88
2023-12-04T20:29:03.585Z,100150.06
2023-12-04T20:31:30.022Z,100159.34
2023-12-04T20:33:56.897Z,100154.28
2023-12-04T20:36:23.678Z,100149.22
2023-12-04T20:38:51.859Z,100147.50
2023-12-04T20:41:20.772Z,100150.88
2023-12-04T20:43:47.336Z,100147.53
2023-12-04T20:46:14.923Z,100143.28
2023-12-04T20:48:41.560Z,100143.28
2023-12-04T20:51:08.822Z,100134.88
2023-12-04T20:53:35.337Z,100140.75
2023-12-04T20:56:01.766Z,100145.81
2023-12-04T20:58:28.554Z,100133.16
2023-12-04T21:00:55.266Z,100135.66
2023-12-04T21:03:21.796Z,100131.47
2023-12-04T21:05:48.991Z,100136.53
2023-12-04T21:08:15.770Z,100128.94
2023-12-04T21:10:42.232Z,100128.91
2023-12-04T21:13:08.652Z,100131.44
2023-12-04T21:15:37.925Z,100129.75
2023-12-04T21:18:04.639Z,100133.13
2023-12-04T21:20:31.136Z,100130.59
2023-12-04T21:22:57.529Z,100130.59
2023-12-04T21:25:24.508Z,100129.72
2023-12-04T21:27:51.032Z,100120.47
2023-12-04T21:30:20.683Z,100126.34
2023-12-04T21:32:48.043Z,100121.28
2023-12-04T21:35:14.473Z,100119.59
2023-12-04T21:37:40.923Z,100117.88
2023-12-04T21:40:08.021Z,100121.25
2023-12-04T21:42:35.540Z,100117.84
2023-12-04T21:45:02.108Z,100113.66
2023-12-04T21:47:28.734Z,100115.31
2023-12-04T21:49:55.824Z,100111.09
2023-12-04T21:52:22.394Z,100113.63
2023-12-04T21:54:49.694Z,100117.00
2023-12-04T21:57:16.340Z,100107.69
2023-12-04T21:59:42.821Z,100105.16
2023-12-04T22:02:09.298Z,100103.50
2023-12-04T22:04:36.425Z,100099.25
2023-12-04T22:07:03.190Z,100108.53
2023-12-04T22:09:29.866Z,100104.31
2023-12-04T22:11:56.680Z,100105.16
2023-12-04T22:14:26.457Z,100099.22
2023-12-04T22:16:52.979Z,100095.03
2023-12-04T22:19:19.560Z,100089.09
2023-12-04T22:21:46.933Z,100088.28
2023-12-04T22:24:13.577Z,100084.03
2023-12-04T22:26:40.044Z,100083.19
2023-12-04T22:29:06.509Z,100087.38
2023-12-04T22:31:32.995Z,100084.00
2023-12-04T22:33:59.597Z,100084.00
2023-12-04T22:36:26.150Z,100082.31
2023-12-04T22:38:52.620Z,100090.72
2023-12-04T22:41:19.280Z,100087.38
2023-12-04T22:43:46.384Z,100080.59
2023-12-04T22:46:12.977Z,100084.81
2023-12-04T22:48:39.817Z,100084.00
2023-12-04T22:51:06.767Z,100084.00
2023-12-04T22:53:33.259Z,100087.34
2023-12-04T22:55:59.724Z,100096.63
2023-12-04T22:58:26.242Z,100093.22
2023-12-04T23:00:54.332Z,100080.56
2023-12-04T23:03:21.673Z,100081.41
2023-12-04T23:05:49.871Z,100085.59
2023-12-04T23:08:18.528Z,100081.41
2023-12-04T23:10:45.303Z,100085.59
2023-12-04T23:13:11.890Z,100077.16
2023-12-04T23:15:38.315Z,100085.56
2023-12-04T23:18:05.221Z,100077.97
2023-12-04T23:20:32.366Z,100075.44
2023-12-04T23:22:58.843Z,100072.06
2023-12-04T23:25:25.349Z,100066.16
2023-12-04T23:27:51.786Z,100061.91
2023-12-04T23:30:18.264Z,100059.38
2023-12-04T23:32:44.745Z,100068.66
2023-12-04T23:35:12.220Z,100068.66
2023-12-04T23:37:38.655Z,100056.81
2023-12-04T23:40:05.979Z,100062.75
2023-12-04T23:42:32.456Z,100065.31
2023-12-04T23:44:58.941Z,100052.66
2023-12-04T23:47:25.886Z,100061.06
2023-12-04T23:49:52.361Z,100065.31
2023-12-04T23:52:19.231Z,100058.50
2023-12-04T23:54:46.430Z,100060.22
2023-12-04T23:57:12.897Z,100063.56
2023-12-04T23:59:39.304Z,100055.97
